sensor_id;sensor_type;location;lat;lon;timestamp;pressure;altitude;pressure_sealevel;temperature;humidity
4012;BME280;2020;48.682;9.024;2023-03-23T00:00:52;95883.69;;;12.24;52.22
4012;BME280;2020;48.682;9.024;2023-03-23T00:03:19;95881.97;;;12.32;51.81
4012;BME280;2020;48.682;9.024;2023-03-23T00:05:46;95890.06;;;12.37;52.31
4012;BME280;2020;48.682;9.024;2023-03-23T00:08:17;95883.22;;;12.36;52.38
4012;BME280;2020;48.682;9.024;2023-03-23T00:10:42;95883.31;;;12.27;52.52
4012;BME280;2020;48.682;9.024;2023-03-23T00:13:07;95877.28;;;12.12;52.65
4012;BME280;2020;48.682;9.024;2023-03-23T00:15:33;95884.75;;;12.15;52.34
4012;BME280;2020;48.682;9.024;2023-03-23T00:17:59;95887.00;;;12.18;52.54
4012;BME280;2020;48.682;9.024;2023-03-23T00:20:29;95882.06;;;12.08;52.81
4012;BME280;2020;48.682;9.024;2023-03-23T00:22:55;95876.94;;;12.15;52.67
4012;BME280;2020;48.682;9.024;2023-03-23T00:25:25;95879.63;;;12.07;53.00
4012;BME280;2020;48.682;9.024;2023-03-23T00:27:50;95871.44;;;12.10;52.91
4012;BME280;2020;48.682;9.024;2023-03-23T00:30:16;95866.84;;;12.12;52.98
4012;BME280;2020;48.682;9.024;2023-03-23T00:32:41;95870.81;;;12.08;53.15
4012;BME280;2020;48.682;9.024;2023-03-23T00:35:06;95860.31;;;12.01;53.41
4012;BME280;2020;48.682;9.024;2023-03-23T00:37:32;95862.66;;;11.88;53.62
4012;BME280;2020;48.682;9.024;2023-03-23T00:39:57;95846.53;;;11.69;53.97
4012;BME280;2020;48.682;9.024;2023-03-23T00:42:26;95855.19;;;11.69;54.65
4012;BME280;2020;48.682;9.024;2023-03-23T00:44:53;95841.81;;;11.73;54.27
4012;BME280;2020;48.682;9.024;2023-03-23T00:47:25;95833.63;;;11.76;53.93
4012;BME280;2020;48.682;9.024;2023-03-23T00:49:50;95835.47;;;11.67;54.35
4012;BME280;2020;48.682;9.024;2023-03-23T00:52:17;95829.19;;;11.61;54.13
4012;BME280;2020;48.682;9.024;2023-03-23T00:54:42;95838.00;;;11.60;54.15
4012;BME280;2020;48.682;9.024;2023-03-23T00:57:07;95830.81;;;11.62;54.00
4012;BME280;2020;48.682;9.024;2023-03-23T00:59:33;95830.28;;;11.67;53.43
4012;BME280;2020;48.682;9.024;2023-03-23T01:01:58;95828.13;;;11.70;53.44
4012;BME280;2020;48.682;9.024;2023-03-23T01:04:23;95833.69;;;11.67;53.42
4012;BME280;2020;48.682;9.024;2023-03-23T01:06:50;95833.34;;;11.70;53.16
4012;BME280;2020;48.682;9.024;2023-03-23T01:09:17;95832.44;;;11.63;53.49
4012;BME280;2020;48.682;9.024;2023-03-23T01:11:44;95836.38;;;11.59;53.45
4012;BME280;2020;48.682;9.024;2023-03-23T01:14:11;95842.41;;;11.60;53.25
4012;BME280;2020;48.682;9.024;2023-03-23T01:16:38;95833.59;;;11.61;53.54
4012;BME280;2020;48.682;9.024;2023-03-23T01:19:03;95828.38;;;11.61;53.44
4012;BME280;2020;48.682;9.024;2023-03-23T01:21:29;95824.34;;;11.58;53.44
4012;BME280;2020;48.682;9.024;2023-03-23T01:23:54;95825.25;;;11.65;53.48
4012;BME280;2020;48.682;9.024;2023-03-23T01:26:25;95804.75;;;11.62;53.32
4012;BME280;2020;48.682;9.024;2023-03-23T01:28:51;95803.03;;;11.54;53.74
4012;BME280;2020;48.682;9.024;2023-03-23T01:31:19;95801.41;;;11.53;53.74
4012;BME280;2020;48.682;9.024;2023-03-23T01:33:45;95800.69;;;11.45;54.18
4012;BME280;2020;48.682;9.024;2023-03-23T01:36:13;95792.53;;;11.48;53.85
4012;BME280;2020;48.682;9.024;2023-03-23T01:38:40;95790.91;;;11.47;53.71
4012;BME280;2020;48.682;9.024;2023-03-23T01:41:06;95787.66;;;11.45;54.10
4012;BME280;2020;48.682;9.024;2023-03-23T01:43:31;95792.88;;;11.45;54.15
4012;BME280;2020;48.682;9.024;2023-03-23T01:45:57;95782.09;;;11.48;54.23
4012;BME280;2020;48.682;9.024;2023-03-23T01:48:29;95783.72;;;11.49;54.00
4012;BME280;2020;48.682;9.024;2023-03-23T01:51:04;95785.34;;;11.50;53.84
4012;BME280;2020;48.682;9.024;2023-03-23T01:53:36;95781.75;;;11.51;53.92
4012;BME280;2020;48.682;9.024;2023-03-23T01:56:02;95780.13;;;11.50;53.99
4012;BME280;2020;48.682;9.024;2023-03-23T01:58:32;95788.22;;;11.55;54.12
4012;BME280;2020;48.682;9.024;2023-03-23T02:01:02;95789.84;;;11.56;53.90
4012;BME280;2020;48.682;9.024;2023-03-23T02:03:29;95789.13;;;11.62;53.90
4012;BME280;2020;48.682;9.024;2023-03-23T02:05:57;95786.25;;;11.57;54.23
4012;BME280;2020;48.682;9.024;2023-03-23T02:08:29;95780.13;;;11.50;54.47
4012;BME280;2020;48.682;9.024;2023-03-23T02:10:57;95784.16;;;11.52;54.68
4012;BME280;2020;48.682;9.024;2023-03-23T02:13:23;95781.09;;;11.49;54.83
4012;BME280;2020;48.682;9.024;2023-03-23T02:16:04;95783.09;;;11.47;55.22
4012;BME280;2020;48.682;9.024;2023-03-23T02:18:40;95786.03;;;11.44;55.59
4012;BME280;2020;48.682;9.024;2023-03-23T02:21:35;95777.25;;;11.45;55.83
4012;BME280;2020;48.682;9.024;2023-03-23T02:26:58;95781.53;;;11.37;56.36
4012;BME280;2020;48.682;9.024;2023-03-23T02:37:59;95747.66;;;11.37;56.62
4012;BME280;2020;48.682;9.024;2023-03-23T02:40:35;95746.69;;;11.38;56.77
4012;BME280;2020;48.682;9.024;2023-03-23T02:43:02;95729.78;;;11.34;56.91
4012;BME280;2020;48.682;9.024;2023-03-23T02:45:29;95728.53;;;11.30;57.19
4012;BME280;2020;48.682;9.024;2023-03-23T02:47:55;95732.44;;;11.26;56.87
4012;BME280;2020;48.682;9.024;2023-03-23T02:50:23;95740.91;;;11.28;56.85
4012;BME280;2020;48.682;9.024;2023-03-23T02:52:52;95735.72;;;11.28;56.75
4012;BME280;2020;48.682;9.024;2023-03-23T02:55:19;95720.72;;;11.30;56.75
4012;BME280;2020;48.682;9.024;2023-03-23T02:57:50;95728.53;;;11.30;56.60
4012;BME280;2020;48.682;9.024;2023-03-23T03:00:16;95719.38;;;11.34;56.42
4012;BME280;2020;48.682;9.024;2023-03-23T03:02:46;95727.19;;;11.34;56.27
4012;BME280;2020;48.682;9.024;2023-03-23T03:05:52;95717.19;;;11.38;56.12
4012;BME280;2020;48.682;9.024;2023-03-23T03:11:15;95721.53;;;11.46;56.03
4012;BME280;2020;48.682;9.024;2023-03-23T03:14:00;95725.13;;;11.45;55.98
4012;BME280;2020;48.682;9.024;2023-03-23T03:16:50;95718.28;;;11.44;56.10
4012;BME280;2020;48.682;9.024;2023-03-23T03:19:30;95723.78;;;11.49;56.06
4012;BME280;2020;48.682;9.024;2023-03-23T03:21:58;95724.41;;;11.51;55.86
4012;BME280;2020;48.682;9.024;2023-03-23T03:24:26;95717.94;;;11.47;56.20
4012;BME280;2020;48.682;9.024;2023-03-23T03:26:54;95718.28;;;11.44;56.24
4012;BME280;2020;48.682;9.024;2023-03-23T03:29:32;95716.94;;;11.48;56.14
4012;BME280;2020;48.682;9.024;2023-03-23T03:32:01;95719.56;;;11.48;56.37
4012;BME280;2020;48.682;9.024;2023-03-23T03:34:27;95719.56;;;11.48;56.15
4012;BME280;2020;48.682;9.024;2023-03-23T03:36:55;95720.97;;;11.50;56.45
4012;BME280;2020;48.682;9.024;2023-03-23T03:39:24;95711.38;;;11.51;56.54
4012;BME280;2020;48.682;9.024;2023-03-23T03:41:49;95711.09;;;11.46;56.60
4012;BME280;2020;48.682;9.024;2023-03-23T03:44:14;95712.53;;;11.48;56.85
4012;BME280;2020;48.682;9.024;2023-03-23T03:46:40;95719.56;;;11.48;56.68
4012;BME280;2020;48.682;9.024;2023-03-23T03:49:08;95714.63;;;11.53;56.97
4012;BME280;2020;48.682;9.024;2023-03-23T03:51:34;95711.66;;;11.56;57.07
4012;BME280;2020;48.682;9.024;2023-03-23T03:54:00;95713.16;;;11.50;57.26
4012;BME280;2020;48.682;9.024;2023-03-23T03:56:26;95712.47;;;11.41;57.51
4012;BME280;2020;48.682;9.024;2023-03-23T03:58:52;95711.47;;;11.43;57.46
4012;BME280;2020;48.682;9.024;2023-03-23T04:01:20;95713.44;;;11.40;57.60
4012;BME280;2020;48.682;9.024;2023-03-23T04:03:49;95712.09;;;11.45;57.27
4012;BME280;2020;48.682;9.024;2023-03-23T04:06:16;95707.88;;;11.44;57.39
4012;BME280;2020;48.682;9.024;2023-03-23T04:08:41;95710.28;;;11.45;57.60
4012;BME280;2020;48.682;9.024;2023-03-23T04:11:08;95703.91;;;11.48;57.58
4012;BME280;2020;48.682;9.024;2023-03-23T04:13:34;95713.16;;;11.50;57.81
4012;BME280;2020;48.682;9.024;2023-03-23T04:15:59;95712.00;;;11.53;57.59
4012;BME280;2020;48.682;9.024;2023-03-23T04:18:25;95717.22;;;11.53;57.45
4012;BME280;2020;48.682;9.024;2023-03-23T04:20:51;95722.78;;;11.50;57.56
4012;BME280;2020;48.682;9.024;2023-03-23T04:23:17;95716.41;;;11.52;57.59
4012;BME280;2020;48.682;9.024;2023-03-23T04:25:46;95722.25;;;11.54;57.47
4012;BME280;2020;48.682;9.024;2023-03-23T04:28:12;95721.72;;;11.59;57.25
4012;BME280;2020;48.682;9.024;2023-03-23T04:30:37;95721.97;;;11.64;57.38
4012;BME280;2020;48.682;9.024;2023-03-23T04:33:02;95721.00;;;11.65;57.37
4012;BME280;2020;48.682;9.024;2023-03-23T04:35:28;95719.00;;;11.67;57.50
4012;BME280;2020;48.682;9.024;2023-03-23T04:37:55;95714.25;;;11.56;57.69
4012;BME280;2020;48.682;9.024;2023-03-23T04:40:21;95710.81;;;11.55;57.42
4012;BME280;2020;48.682;9.024;2023-03-23T04:42:46;95716.88;;;11.56;57.86
4012;BME280;2020;48.682;9.024;2023-03-23T04:45:16;95707.69;;;11.60;57.68
4012;BME280;2020;48.682;9.024;2023-03-23T04:47:47;95710.03;;;11.55;57.62
4012;BME280;2020;48.682;9.024;2023-03-23T04:50:19;95709.56;;;11.51;57.86
4012;BME280;2020;48.682;9.024;2023-03-23T04:52:45;95710.81;;;11.55;57.83
4012;BME280;2020;48.682;9.024;2023-03-23T04:55:12;95711.66;;;11.56;57.66
4012;BME280;2020;48.682;9.024;2023-03-23T04:57:37;95711.66;;;11.56;57.77
4012;BME280;2020;48.682;9.024;2023-03-23T05:00:04;95720.47;;;11.55;57.90
4012;BME280;2020;48.682;9.024;2023-03-23T05:02:40;95714.53;;;11.61;57.83
4012;BME280;2020;48.682;9.024;2023-03-23T05:05:07;95716.88;;;11.56;57.64
4012;BME280;2020;48.682;9.024;2023-03-23T05:07:32;95711.66;;;11.56;57.64
4012;BME280;2020;48.682;9.024;2023-03-23T05:09:58;95708.41;;;11.54;57.63
4012;BME280;2020;48.682;9.024;2023-03-23T05:12:23;95703.19;;;11.54;57.69
4012;BME280;2020;48.682;9.024;2023-03-23T05:14:48;95713.63;;;11.54;57.54
4012;BME280;2020;48.682;9.024;2023-03-23T05:17:14;95712.00;;;11.53;57.96
4012;BME280;2020;48.682;9.024;2023-03-23T05:19:44;95710.38;;;11.52;57.57
4012;BME280;2020;48.682;9.024;2023-03-23T05:22:14;95712.00;;;11.53;57.69
4012;BME280;2020;48.682;9.024;2023-03-23T05:24:40;95701.59;;;11.53;57.77
4012;BME280;2020;48.682;9.024;2023-03-23T05:27:08;95701.59;;;11.53;57.68
4012;BME280;2020;48.682;9.024;2023-03-23T05:29:34;95706.16;;;11.51;57.55
4012;BME280;2020;48.682;9.024;2023-03-23T05:32:04;95700.59;;;11.54;57.55
4012;BME280;2020;48.682;9.024;2023-03-23T05:34:30;95703.19;;;11.54;57.56
4012;BME280;2020;48.682;9.024;2023-03-23T05:36:58;95704.63;;;11.56;57.35
4012;BME280;2020;48.682;9.024;2023-03-23T05:39:24;95704.47;;;11.58;57.39
4012;BME280;2020;48.682;9.024;2023-03-23T05:41:49;95702.47;;;11.60;57.52
4012;BME280;2020;48.682;9.024;2023-03-23T05:44:15;95706.50;;;11.63;57.47
4012;BME280;2020;48.682;9.024;2023-03-23T05:46:41;95708.75;;;11.66;57.28
4012;BME280;2020;48.682;9.024;2023-03-23T05:49:06;95704.38;;;11.66;57.33
4012;BME280;2020;48.682;9.024;2023-03-23T05:51:32;95708.94;;;11.64;57.38
4012;BME280;2020;48.682;9.024;2023-03-23T05:53:57;95714.22;;;11.71;57.52
4012;BME280;2020;48.682;9.024;2023-03-23T05:56:23;95714.44;;;11.69;57.49
4012;BME280;2020;48.682;9.024;2023-03-23T05:58:49;95723.50;;;11.74;57.28
4012;BME280;2020;48.682;9.024;2023-03-23T06:01:14;95719.91;;;11.75;57.19
4012;BME280;2020;48.682;9.024;2023-03-23T06:03:40;95721.53;;;11.76;56.83
4012;BME280;2020;48.682;9.024;2023-03-23T06:06:06;95722.31;;;11.76;57.29
4012;BME280;2020;48.682;9.024;2023-03-23T06:08:33;95735.00;;;11.79;57.27
4012;BME280;2020;48.682;9.024;2023-03-23T06:10:58;95732.03;;;11.82;56.88
4012;BME280;2020;48.682;9.024;2023-03-23T06:13:23;95732.84;;;11.83;57.16
4012;BME280;2020;48.682;9.024;2023-03-23T06:15:49;95738.06;;;11.83;57.14
4012;BME280;2020;48.682;9.024;2023-03-23T06:18:14;95744.91;;;11.84;56.92
4012;BME280;2020;48.682;9.024;2023-03-23T06:20:40;95742.91;;;11.86;56.91
4012;BME280;2020;48.682;9.024;2023-03-23T06:23:06;95746.16;;;11.88;56.79
4012;BME280;2020;48.682;9.024;2023-03-23T06:25:32;95747.41;;;11.92;56.70
4012;BME280;2020;48.682;9.024;2023-03-23T06:27:57;95761.44;;;11.91;56.75
4012;BME280;2020;48.682;9.024;2023-03-23T06:30:23;95761.06;;;11.94;56.43
4012;BME280;2020;48.682;9.024;2023-03-23T06:32:48;95765.91;;;11.97;56.43
4012;BME280;2020;48.682;9.024;2023-03-23T06:35:14;95758.91;;;11.98;56.65
4012;BME280;2020;48.682;9.024;2023-03-23T06:37:40;95771.63;;;12.01;56.45
4012;BME280;2020;48.682;9.024;2023-03-23T06:40:06;95763.94;;;11.99;56.76
4012;BME280;2020;48.682;9.024;2023-03-23T06:42:32;95778.25;;;12.04;56.60
4012;BME280;2020;48.682;9.024;2023-03-23T06:44:58;95766.47;;;12.08;56.44
4012;BME280;2020;48.682;9.024;2023-03-23T06:47:25;95766.31;;;12.09;56.26
4012;BME280;2020;48.682;9.024;2023-03-23T06:49:51;95772.31;;;12.10;56.50
4012;BME280;2020;48.682;9.024;2023-03-23T06:52:16;95775.19;;;12.15;56.39
4012;BME280;2020;48.682;9.024;2023-03-23T06:54:42;95773.47;;;12.22;56.10
4012;BME280;2020;48.682;9.024;2023-03-23T06:57:08;95785.16;;;12.26;56.24
4012;BME280;2020;48.682;9.024;2023-03-23T06:59:33;95783.53;;;12.25;55.99
4012;BME280;2020;48.682;9.024;2023-03-23T07:01:58;95785.16;;;12.26;56.26
4012;BME280;2020;48.682;9.024;2023-03-23T07:04:23;95774.34;;;12.29;56.17
4012;BME280;2020;48.682;9.024;2023-03-23T07:06:49;95781.19;;;12.31;56.05
4012;BME280;2020;48.682;9.024;2023-03-23T07:09:14;95782.81;;;12.32;56.00
4012;BME280;2020;48.682;9.024;2023-03-23T07:11:40;95787.66;;;12.35;56.17
4012;BME280;2020;48.682;9.024;2023-03-23T07:14:06;95784.44;;;12.33;55.94
4012;BME280;2020;48.682;9.024;2023-03-23T07:16:32;95792.25;;;12.33;56.11
4012;BME280;2020;48.682;9.024;2023-03-23T07:18:58;95791.63;;;12.31;56.34
4012;BME280;2020;48.682;9.024;2023-03-23T07:21:23;95798.03;;;12.28;56.35
4012;BME280;2020;48.682;9.024;2023-03-23T07:23:49;95796.84;;;12.31;56.55
4012;BME280;2020;48.682;9.024;2023-03-23T07:26:14;95801.81;;;12.25;56.62
4012;BME280;2020;48.682;9.024;2023-03-23T07:28:39;95810.00;;;12.22;56.64
4012;BME280;2020;48.682;9.024;2023-03-23T07:31:05;95814.84;;;12.25;56.80
4012;BME280;2020;48.682;9.024;2023-03-23T07:33:32;95827.72;;;12.27;56.46
4012;BME280;2020;48.682;9.024;2023-03-23T07:35:59;95828.53;;;12.27;57.15
4012;BME280;2020;48.682;9.024;2023-03-23T07:38:25;95829.78;;;12.32;57.13
4012;BME280;2020;48.682;9.024;2023-03-23T07:40:52;95832.03;;;12.35;57.18
4012;BME280;2020;48.682;9.024;2023-03-23T07:43:18;95832.03;;;12.35;57.20
4012;BME280;2020;48.682;9.024;2023-03-23T07:45:44;95818.25;;;12.41;57.26
4012;BME280;2020;48.682;9.024;2023-03-23T07:48:10;95820.13;;;12.47;56.71
4012;BME280;2020;48.682;9.024;2023-03-23T07:50:35;95825.25;;;12.55;57.40
4012;BME280;2020;48.682;9.024;2023-03-23T07:53:02;95825.53;;;12.61;57.42
4012;BME280;2020;48.682;9.024;2023-03-23T07:55:27;95833.00;;;12.64;57.62
4012;BME280;2020;48.682;9.024;2023-03-23T07:57:54;95823.78;;;12.68;57.85
4012;BME280;2020;48.682;9.024;2023-03-23T08:00:21;95828.66;;;12.71;57.97
4012;BME280;2020;48.682;9.024;2023-03-23T08:02:50;95831.50;;;12.76;58.10
4012;BME280;2020;48.682;9.024;2023-03-23T08:05:17;95843.00;;;12.82;58.43
4012;BME280;2020;48.682;9.024;2023-03-23T08:07:43;95838.78;;;12.81;58.16
4012;BME280;2020;48.682;9.024;2023-03-23T08:10:10;95846.06;;;12.85;58.89
4012;BME280;2020;48.682;9.024;2023-03-23T08:12:37;95847.31;;;12.90;58.51
4012;BME280;2020;48.682;9.024;2023-03-23T08:15:04;95846.88;;;12.86;59.12
4012;BME280;2020;48.682;9.024;2023-03-23T08:17:31;95841.72;;;12.93;58.98
4012;BME280;2020;48.682;9.024;2023-03-23T08:19:56;95833.78;;;13.01;58.98
4012;BME280;2020;48.682;9.024;2023-03-23T08:22:23;95834.50;;;13.16;59.10
4012;BME280;2020;48.682;9.024;2023-03-23T08:24:48;95851.19;;;13.15;58.84
4012;BME280;2020;48.682;9.024;2023-03-23T08:27:13;95852.84;;;13.23;59.22
4012;BME280;2020;48.682;9.024;2023-03-23T08:29:39;95858.97;;;13.30;58.93
4012;BME280;2020;48.682;9.024;2023-03-23T08:32:05;95863.75;;;13.27;59.19
4012;BME280;2020;48.682;9.024;2023-03-23T08:34:31;95857.28;;;13.23;59.63
4012;BME280;2020;48.682;9.024;2023-03-23T08:36:57;95867.72;;;13.23;59.81
4012;BME280;2020;48.682;9.024;2023-03-23T08:39:23;95857.66;;;13.20;60.22
4012;BME280;2020;48.682;9.024;2023-03-23T08:41:48;95864.13;;;13.24;60.96
4012;BME280;2020;48.682;9.024;2023-03-23T08:44:14;95863.75;;;13.27;60.91
4012;BME280;2020;48.682;9.024;2023-03-23T08:46:40;95860.16;;;13.28;61.02
4012;BME280;2020;48.682;9.024;2023-03-23T08:49:06;95873.72;;;13.16;61.00
4012;BME280;2020;48.682;9.024;2023-03-23T08:51:32;95881.72;;;13.15;61.40
4012;BME280;2020;48.682;9.024;2023-03-23T08:53:57;95883.53;;;13.14;61.61
4012;BME280;2020;48.682;9.024;2023-03-23T08:56:23;95884.56;;;13.20;61.68
4012;BME280;2020;48.682;9.024;2023-03-23T08:58:49;95885.03;;;13.24;61.60
4012;BME280;2020;48.682;9.024;2023-03-23T09:01:14;95888.88;;;13.28;62.27
4012;BME280;2020;48.682;9.024;2023-03-23T09:03:40;95875.06;;;13.34;61.83
4012;BME280;2020;48.682;9.024;2023-03-23T09:06:07;95884.44;;;13.43;61.59
4012;BME280;2020;48.682;9.024;2023-03-23T09:08:33;95885.53;;;13.56;61.61
4012;BME280;2020;48.682;9.024;2023-03-23T09:11:04;95875.94;;;13.41;61.19
4012;BME280;2020;48.682;9.024;2023-03-23T09:13:30;95903.72;;;13.42;61.22
4012;BME280;2020;48.682;9.024;2023-03-23T09:15:56;95896.13;;;13.48;61.56
4012;BME280;2020;48.682;9.024;2023-03-23T09:18:22;95895.38;;;13.54;60.88
4012;BME280;2020;48.682;9.024;2023-03-23T09:20:49;95890.63;;;13.64;60.64
4012;BME280;2020;48.682;9.024;2023-03-23T09:23:14;95902.34;;;13.68;60.26
4012;BME280;2020;48.682;9.024;2023-03-23T09:25:40;95898.03;;;13.82;60.11
4012;BME280;2020;48.682;9.024;2023-03-23T09:28:06;95909.03;;;13.78;59.59
4012;BME280;2020;48.682;9.024;2023-03-23T09:30:32;95908.19;;;13.70;59.92
4012;BME280;2020;48.682;9.024;2023-03-23T09:33:00;95919.16;;;13.59;60.50
4012;BME280;2020;48.682;9.024;2023-03-23T09:35:29;95919.28;;;13.51;60.37
4012;BME280;2020;48.682;9.024;2023-03-23T09:37:55;95915.06;;;13.50;60.57
4012;BME280;2020;48.682;9.024;2023-03-23T09:46:27;95932.72;;;13.48;61.48
4012;BME280;2020;48.682;9.024;2023-03-23T09:49:19;95932.59;;;13.56;61.15
4012;BME280;2020;48.682;9.024;2023-03-23T09:51:53;95912.06;;;13.53;61.11
4012;BME280;2020;48.682;9.024;2023-03-23T09:54:24;95938.31;;;13.44;61.16
4012;BME280;2020;48.682;9.024;2023-03-23T09:56:51;95938.25;;;13.38;61.93
4012;BME280;2020;48.682;9.024;2023-03-23T10:01:57;95921.97;;;13.57;61.55
4012;BME280;2020;48.682;9.024;2023-03-23T10:04:31;95928.22;;;13.85;60.94
4012;BME280;2020;48.682;9.024;2023-03-23T10:07:10;95926.44;;;14.14;60.57
4012;BME280;2020;48.682;9.024;2023-03-23T10:09:36;95917.69;;;14.28;60.15
4012;BME280;2020;48.682;9.024;2023-03-23T10:17:50;95920.81;;;14.17;59.86
4012;BME280;2020;48.682;9.024;2023-03-23T10:20:29;95918.91;;;14.32;59.96
4012;BME280;2020;48.682;9.024;2023-03-23T10:28:43;95930.16;;;14.33;60.26
4012;BME280;2020;48.682;9.024;2023-03-23T10:31:23;95935.88;;;14.43;59.77
4012;BME280;2020;48.682;9.024;2023-03-23T10:33:53;95930.38;;;14.31;59.88
4012;BME280;2020;48.682;9.024;2023-03-23T10:36:24;95937.47;;;14.38;60.20
4012;BME280;2020;48.682;9.024;2023-03-23T10:39:12;95938.38;;;14.23;60.76
4012;BME280;2020;48.682;9.024;2023-03-23T10:41:38;95932.00;;;14.32;60.19
4012;BME280;2020;48.682;9.024;2023-03-23T10:44:15;95933.91;;;14.52;60.20
4012;BME280;2020;48.682;9.024;2023-03-23T10:46:47;95940.47;;;14.70;59.62
4012;BME280;2020;48.682;9.024;2023-03-23T10:49:21;95937.03;;;15.18;58.10
4012;BME280;2020;48.682;9.024;2023-03-23T10:51:57;95936.69;;;15.48;57.11
4012;BME280;2020;48.682;9.024;2023-03-23T10:54:39;95936.31;;;15.58;57.83
4012;BME280;2020;48.682;9.024;2023-03-23T10:57:17;95939.53;;;15.46;57.20
4012;BME280;2020;48.682;9.024;2023-03-23T10:59:45;95938.31;;;15.42;56.96
4012;BME280;2020;48.682;9.024;2023-03-23T11:02:16;95940.19;;;15.00;57.13
4012;BME280;2020;48.682;9.024;2023-03-23T11:04:46;95931.72;;;14.98;57.86
4012;BME280;2020;48.682;9.024;2023-03-23T11:07:20;95940.25;;;15.13;57.07
4012;BME280;2020;48.682;9.024;2023-03-23T11:09:55;95936.59;;;14.66;57.94
4012;BME280;2020;48.682;9.024;2023-03-23T11:12:21;95930.44;;;14.80;57.57
4012;BME280;2020;48.682;9.024;2023-03-23T11:14:48;95926.47;;;14.91;57.81
4012;BME280;2020;48.682;9.024;2023-03-23T11:17:23;95932.84;;;14.75;58.31
4012;BME280;2020;48.682;9.024;2023-03-23T11:19:50;95930.81;;;14.70;58.91
4012;BME280;2020;48.682;9.024;2023-03-23T11:22:27;95935.94;;;14.57;59.02
4012;BME280;2020;48.682;9.024;2023-03-23T11:24:55;95924.28;;;14.59;60.43
4012;BME280;2020;48.682;9.024;2023-03-23T11:27:21;95941.69;;;14.74;59.15
4012;BME280;2020;48.682;9.024;2023-03-23T11:29:54;95921.97;;;14.78;58.55
4012;BME280;2020;48.682;9.024;2023-03-23T11:32:23;95918.28;;;14.66;59.27
4012;BME280;2020;48.682;9.024;2023-03-23T11:34:54;95923.03;;;14.90;58.58
4012;BME280;2020;48.682;9.024;2023-03-23T11:37:34;95906.91;;;14.94;57.62
4012;BME280;2020;48.682;9.024;2023-03-23T11:42:45;95910.47;;;15.34;56.10
4012;BME280;2020;48.682;9.024;2023-03-23T11:45:34;95909.28;;;15.64;56.30
4012;BME280;2020;48.682;9.024;2023-03-23T11:53:55;95920.94;;;15.28;55.40
4012;BME280;2020;48.682;9.024;2023-03-23T11:56:30;95910.22;;;15.23;54.44
4012;BME280;2020;48.682;9.024;2023-03-23T11:58:58;95908.13;;;14.98;55.47
4012;BME280;2020;48.682;9.024;2023-03-23T12:01:46;95906.38;;;15.18;55.68
4012;BME280;2020;48.682;9.024;2023-03-23T12:04:33;95900.75;;;15.21;54.33
4012;BME280;2020;48.682;9.024;2023-03-23T12:12:50;95902.81;;;15.33;54.66
4012;BME280;2020;48.682;9.024;2023-03-23T12:18:16;95899.19;;;15.34;54.29
4012;BME280;2020;48.682;9.024;2023-03-23T12:23:25;95903.59;;;15.33;54.36
4012;BME280;2020;48.682;9.024;2023-03-23T12:34:19;95894.72;;;15.28;54.05
4012;BME280;2020;48.682;9.024;2023-03-23T12:36:57;95895.56;;;15.62;54.18
4012;BME280;2020;48.682;9.024;2023-03-23T12:43:05;95884.69;;;15.92;52.25
4012;BME280;2020;48.682;9.024;2023-03-23T12:48:35;95878.84;;;15.90;52.47
4012;BME280;2020;48.682;9.024;2023-03-23T12:51:15;95879.44;;;15.78;52.78
4012;BME280;2020;48.682;9.024;2023-03-23T12:53:49;95874.97;;;15.86;53.11
4012;BME280;2020;48.682;9.024;2023-03-23T12:56:38;95876.59;;;16.14;53.48
4012;BME280;2020;48.682;9.024;2023-03-23T12:59:13;95877.78;;;16.18;52.39
4012;BME280;2020;48.682;9.024;2023-03-23T13:01:45;95877.53;;;16.40;52.84
4012;BME280;2020;48.682;9.024;2023-03-23T13:04:15;95865.19;;;16.47;52.34
4012;BME280;2020;48.682;9.024;2023-03-23T13:06:45;95871.72;;;16.24;51.85
4012;BME280;2020;48.682;9.024;2023-03-23T13:11:56;95862.69;;;16.00;51.65
4012;BME280;2020;48.682;9.024;2023-03-23T13:14:40;95852.34;;;16.12;51.76
4012;BME280;2020;48.682;9.024;2023-03-23T13:17:20;95854.34;;;16.23;51.77
4012;BME280;2020;48.682;9.024;2023-03-23T13:23:13;95845.91;;;16.07;51.38
4012;BME280;2020;48.682;9.024;2023-03-23T13:26:18;95839.78;;;16.27;51.62
4012;BME280;2020;48.682;9.024;2023-03-23T13:31:30;95831.78;;;16.08;51.01
4012;BME280;2020;48.682;9.024;2023-03-23T13:34:22;95832.56;;;16.16;51.32
4012;BME280;2020;48.682;9.024;2023-03-23T13:37:02;95825.84;;;16.33;51.38
4012;BME280;2020;48.682;9.024;2023-03-23T13:39:32;95827.22;;;16.43;51.20
4012;BME280;2020;48.682;9.024;2023-03-23T13:44:43;95826.00;;;16.45;50.51
4012;BME280;2020;48.682;9.024;2023-03-23T13:50:12;95812.97;;;16.71;50.63
4012;BME280;2020;48.682;9.024;2023-03-23T13:57:54;95814.22;;;16.02;50.23
4012;BME280;2020;48.682;9.024;2023-03-23T14:03:00;95818.78;;;16.27;50.25
4012;BME280;2020;48.682;9.024;2023-03-23T14:07:58;95805.91;;;16.19;49.89
4012;BME280;2020;48.682;9.024;2023-03-23T14:10:31;95785.72;;;16.19;49.69
4012;BME280;2020;48.682;9.024;2023-03-23T14:12:59;95791.38;;;16.16;49.74
4012;BME280;2020;48.682;9.024;2023-03-23T14:15:29;95794.56;;;16.25;49.73
4012;BME280;2020;48.682;9.024;2023-03-23T14:17:55;95786.09;;;16.23;49.94
4012;BME280;2020;48.682;9.024;2023-03-23T14:20:31;95784.53;;;16.08;50.10
4012;BME280;2020;48.682;9.024;2023-03-23T14:22:59;95791.00;;;15.99;50.43
4012;BME280;2020;48.682;9.024;2023-03-23T14:25:28;95778.91;;;15.98;50.05
4012;BME280;2020;48.682;9.024;2023-03-23T14:27:55;95806.38;;;15.89;50.00
4012;BME280;2020;48.682;9.024;2023-03-23T14:30:23;95795.13;;;15.41;50.44
4012;BME280;2020;48.682;9.024;2023-03-23T14:32:51;95801.97;;;15.42;50.68
4012;BME280;2020;48.682;9.024;2023-03-23T14:35:27;95795.50;;;15.65;50.79
4012;BME280;2020;48.682;9.024;2023-03-23T14:37:54;95793.06;;;15.70;49.60
4012;BME280;2020;48.682;9.024;2023-03-23T14:40:20;95788.63;;;15.64;49.76
4012;BME280;2020;48.682;9.024;2023-03-23T14:42:46;95789.84;;;15.68;49.77
4012;BME280;2020;48.682;9.024;2023-03-23T14:45:17;95788.00;;;15.75;50.03
4012;BME280;2020;48.682;9.024;2023-03-23T14:47:47;95775.31;;;15.72;49.56
4012;BME280;2020;48.682;9.024;2023-03-23T14:50:29;95798.69;;;15.81;49.63
4012;BME280;2020;48.682;9.024;2023-03-23T14:53:03;95799.28;;;15.76;49.65
4012;BME280;2020;48.682;9.024;2023-03-23T14:55:32;95793.25;;;15.75;48.86
4012;BME280;2020;48.682;9.024;2023-03-23T14:58:08;95788.22;;;15.67;49.02
4012;BME280;2020;48.682;9.024;2023-03-23T15:00:39;95788.25;;;15.54;48.47
4012;BME280;2020;48.682;9.024;2023-03-23T15:03:11;95785.00;;;15.65;48.41
4012;BME280;2020;48.682;9.024;2023-03-23T15:05:41;95782.56;;;15.63;48.54